createdAt,value
2019-04-24T00:02:15.244Z,15.80
2019-04-24T00:04:54.979Z,15.80
2019-04-24T00:07:49.729Z,15.80
2019-04-24T00:10:29.903Z,15.80
2019-04-24T00:12:55.050Z,15.80
2019-04-24T00:15:46.226Z,15.80
2019-04-24T00:25:33.308Z,15.80
2019-04-24T00:27:58.146Z,15.80
2019-04-24T00:30:10.502Z,15.80
2019-04-24T00:32:46.309Z,15.80
2019-04-24T00:35:31.124Z,15.80
2019-04-24T00:38:14.328Z,15.80
2019-04-24T00:40:58.921Z,15.80
2019-04-24T00:43:43.083Z,15.80
2019-04-24T00:48:16.081Z,15.80
2019-04-24T00:50:46.303Z,15.80
2019-04-24T00:58:58.809Z,15.80
2019-04-24T01:02:01.535Z,15.70
2019-04-24T01:10:07.153Z,15.70
2019-04-24T01:12:35.403Z,15.70
2019-04-24T01:14:59.498Z,15.70
2019-04-24T01:17:21.838Z,15.70
2019-04-24T01:20:37.094Z,15.80
2019-04-24T01:22:45.431Z,15.80
2019-04-24T01:27:56.763Z,15.80
2019-04-24T01:32:43.100Z,15.80
2019-04-24T01:35:27.868Z,15.80
2019-04-24T01:38:06.686Z,15.90
2019-04-24T01:46:03.141Z,15.90
2019-04-24T01:53:01.474Z,15.90
2019-04-24T01:55:28.737Z,15.90
2019-04-24T01:58:13.832Z,15.80
2019-04-24T02:02:59.413Z,15.70
2019-04-24T02:05:38.943Z,15.70
2019-04-24T02:08:31.260Z,15.70
2019-04-24T02:18:51.217Z,15.70
2019-04-24T02:21:19.405Z,15.70
2019-04-24T02:23:39.496Z,15.70
2019-04-24T02:33:45.816Z,15.50
2019-04-24T02:35:39.364Z,15.50
2019-04-24T02:38:06.501Z,15.40
2019-04-24T02:40:46.937Z,15.40
2019-04-24T02:43:29.644Z,15.40
2019-04-24T02:50:33.675Z,15.30
2019-04-24T02:53:20.052Z,15.40
2019-04-24T02:55:16.437Z,15.40
2019-04-24T02:57:47.176Z,15.40
2019-04-24T03:05:32.526Z,15.30
2019-04-24T03:17:37.483Z,15.10
2019-04-24T03:24:26.575Z,14.80
2019-04-24T03:27:00.091Z,14.70
2019-04-24T03:29:14.931Z,14.60
2019-04-24T03:44:26.058Z,14.50
2019-04-24T03:46:45.213Z,14.50
2019-04-24T03:54:40.156Z,14.40
2019-04-24T03:57:35.717Z,14.40
2019-04-24T04:05:40.244Z,14.30
2019-04-24T04:08:29.325Z,14.20
2019-04-24T04:10:55.474Z,14.30
2019-04-24T04:16:28.145Z,14.30
2019-04-24T04:26:45.904Z,14.50
2019-04-24T04:29:00.119Z,14.50
2019-04-24T04:31:36.269Z,14.50
2019-04-24T04:45:47.170Z,14.70
2019-04-24T04:48:14.021Z,14.70
2019-04-24T05:07:14.315Z,15.00
2019-04-24T05:13:58.849Z,15.30
2019-04-24T05:16:07.753Z,15.50
2019-04-24T05:19:04.208Z,15.60
2019-04-24T05:23:53.204Z,15.70
2019-04-24T05:27:10.927Z,15.80
2019-04-24T05:31:17.160Z,15.90
2019-04-24T05:33:31.781Z,15.90
2019-04-24T05:36:11.311Z,16.00
2019-04-24T05:39:16.068Z,16.10
2019-04-24T05:41:01.358Z,16.10
2019-04-24T05:43:56.290Z,16.20
2019-04-24T05:46:33.347Z,16.30
2019-04-24T05:51:37.830Z,16.50
2019-04-24T05:57:02.362Z,16.70
2019-04-24T05:59:57.637Z,16.80
2019-04-24T06:08:20.947Z,17.00
2019-04-24T06:12:46.888Z,17.20
2019-04-24T06:15:23.386Z,17.30
2019-04-24T06:18:09.263Z,17.30
2019-04-24T06:20:49.983Z,17.40
2019-04-24T06:22:42.724Z,17.50
2019-04-24T06:28:30.356Z,17.70
2019-04-24T06:31:15.005Z,17.90
2019-04-24T06:33:39.972Z,17.90
2019-04-24T06:35:57.976Z,18.10
2019-04-24T06:38:58.253Z,18.20
2019-04-24T06:41:51.816Z,18.50
2019-04-24T06:47:33.429Z,18.80
2019-04-24T06:49:27.617Z,19.10
2019-04-24T06:55:38.262Z,19.30
2019-04-24T07:00:19.324Z,19.60
2019-04-24T07:02:13.256Z,19.80
2019-04-24T07:09:45.227Z,20.10
2019-04-24T07:14:58.955Z,20.20
2019-04-24T07:19:44.085Z,20.40
2019-04-24T07:24:33.559Z,20.70
2019-04-24T07:26:56.170Z,20.70
2019-04-24T07:29:16.363Z,20.90
2019-04-24T07:37:35.007Z,21.30
2019-04-24T07:53:03.972Z,21.70
2019-04-24T08:01:29.558Z,21.40
2019-04-24T08:04:00.330Z,21.40
2019-04-24T08:22:41.157Z,20.90
2019-04-24T08:25:14.300Z,21.20
2019-04-24T08:26:52.966Z,21.90
2019-04-24T08:29:26.145Z,22.80
2019-04-24T08:31:59.850Z,23.10
2019-04-24T08:46:46.436Z,23.10
2019-04-24T08:55:05.202Z,23.50
2019-04-24T08:58:21.646Z,23.60
2019-04-24T09:01:17.794Z,23.80
2019-04-24T09:06:12.481Z,24.10
2019-04-24T09:09:29.821Z,24.10
2019-04-24T09:19:17.260Z,24.10
2019-04-24T09:21:45.611Z,23.80
2019-04-24T09:24:35.314Z,23.80
2019-04-24T09:31:56.318Z,24.10
2019-04-24T09:43:20.689Z,25.10
2019-04-24T09:45:25.646Z,25.10
2019-04-24T09:48:10.707Z,25.30
2019-04-24T09:55:05.338Z,26.00
2019-04-24T09:57:51.047Z,26.30
2019-04-24T09:59:50.594Z,26.50
2019-04-24T10:02:31.933Z,26.70
2019-04-24T10:05:46.034Z,26.80
2019-04-24T10:08:07.587Z,26.80
2019-04-24T10:14:35.765Z,26.90
2019-04-24T10:16:57.330Z,27.20
2019-04-24T10:22:47.899Z,27.10
2019-04-24T10:24:56.130Z,26.80
2019-04-24T10:27:03.406Z,26.60
2019-04-24T10:29:40.145Z,26.80
2019-04-24T10:35:19.950Z,27.30
2019-04-24T10:40:27.109Z,27.50
2019-04-24T10:46:14.344Z,27.00
2019-04-24T10:48:29.153Z,27.10
2019-04-24T10:53:21.012Z,26.90
2019-04-24T11:00:41.127Z,26.50
2019-04-24T11:03:29.979Z,26.50
2019-04-24T11:05:52.395Z,26.50
2019-04-24T11:11:31.153Z,26.80
2019-04-24T11:13:55.736Z,26.60
2019-04-24T11:16:36.404Z,26.50
2019-04-24T11:19:10.795Z,26.30
2019-04-24T11:24:21.586Z,25.90
2019-04-24T11:27:06.903Z,25.90
2019-04-24T11:29:31.017Z,25.90
2019-04-24T11:32:01.600Z,25.90
2019-04-24T11:35:04.150Z,25.90
2019-04-24T11:37:47.106Z,25.80
2019-04-24T11:42:39.302Z,25.80
2019-04-24T11:45:04.128Z,25.80
2019-04-24T11:47:49.618Z,25.80
2019-04-24T11:50:38.500Z,25.80
2019-04-24T11:55:24.269Z,25.90
2019-04-24T11:58:09.558Z,26.10
2019-04-24T12:00:12.130Z,26.20
2019-04-24T12:02:57.760Z,26.30
2019-04-24T12:10:35.126Z,26.50
2019-04-24T12:15:58.350Z,27.00
2019-04-24T12:18:33.459Z,27.20
2019-04-24T12:23:46.936Z,27.50
2019-04-24T12:31:10.599Z,27.50
2019-04-24T12:37:03.347Z,27.40
2019-04-24T12:39:19.382Z,27.30
2019-04-24T12:42:02.196Z,27.10
2019-04-24T12:44:41.470Z,27.00
2019-04-24T12:51:57.207Z,27.00
2019-04-24T12:54:27.140Z,27.00
2019-04-24T12:59:36.483Z,27.00
2019-04-24T13:01:59.781Z,27.00
2019-04-24T13:04:28.736Z,27.00
2019-04-24T13:06:30.081Z,27.00
2019-04-24T13:09:13.911Z,26.90
2019-04-24T13:11:16.054Z,26.90
2019-04-24T13:13:41.933Z,26.90
2019-04-24T13:16:14.254Z,26.90
2019-04-24T13:18:40.842Z,26.90
2019-04-24T13:20:41.179Z,26.90
2019-04-24T13:23:13.561Z,26.90
2019-04-24T13:26:09.589Z,26.90
2019-04-24T13:35:47.455Z,27.00
2019-04-24T13:40:32.289Z,27.00
2019-04-24T13:42:40.560Z,27.00
2019-04-24T13:50:34.698Z,27.00
2019-04-24T13:55:43.975Z,26.90
2019-04-24T13:58:16.520Z,26.90
2019-04-24T14:00:56.329Z,27.00
2019-04-24T14:05:25.087Z,27.10
2019-04-24T14:08:00.948Z,27.10
2019-04-24T14:10:26.001Z,27.10
2019-04-24T14:17:38.440Z,27.10
2019-04-24T14:22:58.085Z,27.20
2019-04-24T14:25:17.513Z,27.00
2019-04-24T14:29:48.449Z,27.10
2019-04-24T14:32:05.047Z,27.10
2019-04-24T14:36:46.504Z,27.30
2019-04-24T14:41:27.998Z,27.50
2019-04-24T14:46:53.530Z,27.80
2019-04-24T14:51:41.342Z,27.70
2019-04-24T14:57:01.663Z,27.60
2019-04-24T14:59:28.567Z,27.70
2019-04-24T15:01:53.940Z,27.90
2019-04-24T15:06:24.004Z,28.40
2019-04-24T15:08:40.798Z,28.70
2019-04-24T15:10:45.042Z,28.90
2019-04-24T15:15:08.978Z,29.10
2019-04-24T15:17:43.780Z,29.10
2019-04-24T15:19:53.125Z,29.10
2019-04-24T15:22:06.799Z,29.10
2019-04-24T15:26:19.028Z,29.00
2019-04-24T15:29:00.603Z,29.10
2019-04-24T15:33:12.094Z,29.10
2019-04-24T15:37:41.435Z,28.80
2019-04-24T15:40:03.671Z,28.70
2019-04-24T15:44:39.210Z,28.50
2019-04-24T15:46:53.958Z,28.40
2019-04-24T15:49:06.619Z,28.30
2019-04-24T15:51:23.129Z,28.30
2019-04-24T15:53:20.409Z,28.30
2019-04-24T15:55:44.405Z,28.20
2019-04-24T15:57:51.885Z,28.20
2019-04-24T16:00:43.158Z,28.20
2019-04-24T16:03:07.306Z,28.20
2019-04-24T16:04:54.883Z,28.30
2019-04-24T16:07:03.440Z,28.20
2019-04-24T16:09:24.170Z,28.20
2019-04-24T16:11:39.286Z,28.20
2019-04-24T16:13:58.911Z,28.20
2019-04-24T16:19:16.450Z,28.10
2019-04-24T16:21:20.984Z,28.00
2019-04-24T16:24:11.671Z,27.90
2019-04-24T16:28:13.071Z,27.80
2019-04-24T16:30:13.407Z,27.80
2019-04-24T16:38:56.411Z,27.60
2019-04-24T16:41:27.431Z,27.50
2019-04-24T16:45:48.743Z,27.50
2019-04-24T16:52:20.743Z,27.30
2019-04-24T16:56:32.693Z,27.20
2019-04-24T16:58:31.736Z,27.10
2019-04-24T17:01:15.345Z,27.10
2019-04-24T17:03:02.243Z,27.10
2019-04-24T17:04:59.703Z,27.00
2019-04-24T17:13:29.065Z,26.70
2019-04-24T17:15:40.397Z,26.60
2019-04-24T17:18:06.898Z,26.50
2019-04-24T17:20:07.949Z,26.40
2019-04-24T17:24:44.243Z,26.10
2019-04-24T17:26:40.523Z,26.00
2019-04-24T17:28:56.089Z,25.80
2019-04-24T17:31:14.534Z,25.60
2019-04-24T17:35:26.840Z,25.30
2019-04-24T17:36:51.810Z,25.20
2019-04-24T17:39:03.742Z,25.10
2019-04-24T17:41:12.704Z,25.00
2019-04-24T17:43:43.703Z,24.90
2019-04-24T17:48:05.212Z,24.60
2019-04-24T17:52:29.185Z,24.40
2019-04-24T18:04:18.105Z,23.90
2019-04-24T18:06:39.364Z,23.80
2019-04-24T18:13:13.738Z,23.60
2019-04-24T18:16:00.443Z,23.50
2019-04-24T18:18:16.519Z,23.40
2019-04-24T18:20:37.898Z,23.40
2019-04-24T18:22:50.093Z,23.30
2019-04-24T18:28:51.473Z,23.30
2019-04-24T18:39:32.676Z,23.10
2019-04-24T18:44:49.862Z,23.00
2019-04-24T18:47:16.356Z,23.00
2019-04-24T18:53:13.870Z,23.00
2019-04-24T18:56:03.498Z,22.90
2019-04-24T18:59:02.440Z,21.80
2019-04-24T19:11:31.953Z,19.30
2019-04-24T19:13:53.389Z,19.00
2019-04-24T19:16:19.938Z,18.70
2019-04-24T19:18:28.595Z,18.30
2019-04-24T19:21:28.094Z,18.00
2019-04-24T19:23:32.450Z,17.70
2019-04-24T19:29:52.919Z,17.10
2019-04-24T19:32:51.867Z,16.70
2019-04-24T19:39:17.302Z,16.10
2019-04-24T19:42:08.529Z,15.90
2019-04-24T20:01:28.940Z,15.20
2019-04-24T20:07:34.415Z,15.20
2019-04-24T20:14:37.599Z,15.00
2019-04-24T20:16:39.204Z,14.90
2019-04-24T20:19:18.062Z,15.00
2019-04-24T20:21:57.219Z,15.00
2019-04-24T20:24:15.537Z,15.00
2019-04-24T20:26:36.768Z,14.90
2019-04-24T20:28:58.376Z,14.80
2019-04-24T20:31:05.599Z,14.80
2019-04-24T20:33:27.342Z,14.80
2019-04-24T20:35:45.306Z,14.70
2019-04-24T20:37:56.781Z,14.70
2019-04-24T20:40:01.926Z,14.70
2019-04-24T20:42:06.243Z,14.70
2019-04-24T20:44:11.595Z,14.60
2019-04-24T20:46:23.922Z,14.60
2019-04-24T20:48:29.091Z,14.50
2019-04-24T20:50:47.945Z,14.50
2019-04-24T20:52:57.916Z,14.40
2019-04-24T20:55:06.786Z,14.30
2019-04-24T20:59:23.384Z,14.00
2019-04-24T21:01:35.904Z,14.00
2019-04-24T21:03:45.662Z,13.70
2019-04-24T21:06:24.808Z,13.60
2019-04-24T21:08:43.616Z,13.50
2019-04-24T21:10:56.254Z,13.40
2019-04-24T21:13:00.263Z,13.40
2019-04-24T21:15:38.836Z,13.40
2019-04-24T21:17:44.356Z,13.20
2019-04-24T21:19:53.822Z,13.20
2019-04-24T21:22:13.205Z,13.20
2019-04-24T21:24:24.140Z,13.20
2019-04-24T21:26:33.125Z,13.10
2019-04-24T21:28:45.875Z,13.20
2019-04-24T21:31:00.233Z,13.20
2019-04-24T21:33:15.098Z,13.10
2019-04-24T21:35:30.897Z,13.20
2019-04-24T21:37:41.878Z,13.20
2019-04-24T21:39:48.688Z,13.30
2019-04-24T21:41:54.893Z,13.30
2019-04-24T21:44:01.803Z,13.30
2019-04-24T21:46:14.034Z,13.30
2019-04-24T21:48:24.448Z,13.30
2019-04-24T21:50:28.769Z,13.30
2019-04-24T21:52:34.885Z,13.30
2019-04-24T21:54:38.491Z,13.30
2019-04-24T21:56:42.381Z,13.30
2019-04-24T21:58:46.772Z,13.30
2019-04-24T22:01:27.424Z,13.20
2019-04-24T22:03:49.698Z,13.20
2019-04-24T22:05:54.636Z,13.20
2019-04-24T22:07:58.781Z,13.20
2019-04-24T22:10:03.004Z,13.10
2019-04-24T22:12:07.064Z,13.10
2019-04-24T22:14:13.640Z,13.10
2019-04-24T22:16:17.948Z,13.00
2019-04-24T22:18:43.789Z,13.00
2019-04-24T22:21:04.849Z,13.00
2019-04-24T22:23:31.583Z,13.00
2019-04-24T22:26:04.745Z,13.10
2019-04-24T22:28:19.947Z,13.10
2019-04-24T22:31:03.382Z,13.00
2019-04-24T22:33:07.238Z,12.90
2019-04-24T22:35:28.629Z,12.90
2019-04-24T22:37:33.389Z,12.80
2019-04-24T22:39:58.571Z,12.70
2019-04-24T22:42:02.562Z,12.60
2019-04-24T22:44:06.648Z,12.60
2019-04-24T22:46:12.160Z,12.60
2019-04-24T22:48:16.137Z,12.60
2019-04-24T22:50:20.009Z,12.60
2019-04-24T22:52:24.257Z,12.60
2019-04-24T22:54:30.135Z,12.60
2019-04-24T22:56:43.781Z,12.70
2019-04-24T22:58:39.353Z,12.70
2019-04-24T23:00:43.359Z,12.80
2019-04-24T23:02:52.144Z,12.80
2019-04-24T23:05:03.479Z,12.90
2019-04-24T23:07:14.992Z,12.90
2019-04-24T23:09:26.924Z,12.90
2019-04-24T23:11:32.790Z,12.90
2019-04-24T23:13:41.870Z,12.90
2019-04-24T23:15:52.300Z,12.90
2019-04-24T23:18:19.655Z,12.90
2019-04-24T23:20:34.275Z,12.90
2019-04-24T23:22:56.970Z,12.90
2019-04-24T23:25:21.749Z,12.80
2019-04-24T23:27:51.477Z,12.80
2019-04-24T23:30:05.499Z,12.80
2019-04-24T23:32:46.700Z,12.80
2019-04-24T23:34:51.360Z,12.80
2019-04-24T23:36:55.520Z,12.80
2019-04-24T23:38:59.336Z,12.80
2019-04-24T23:41:03.269Z,12.80
2019-04-24T23:43:07.120Z,12.70
2019-04-24T23:45:12.295Z,12.80
2019-04-24T23:47:16.187Z,12.70
2019-04-24T23:49:20.011Z,12.70
2019-04-24T23:51:23.891Z,12.70
2019-04-24T23:53:27.681Z,12.70
2019-04-24T23:55:31.708Z,12.70
2019-04-24T23:57:36.340Z,12.70
2019-04-24T23:59:42.188Z,12.70
